Time;durP1;ratioP1;P1;durP2;ratioP2;P2;SDS_P1;SDS_P2;PMS_P1;PMS_P2;Temp;Humidity;BMP_temperature;BMP_pressure;BME280_temperature;BME280_humidity;BME280_pressure;Samples;Min_cycle;Max_cycle;Signal;HPM_P1;HPM_P2
2023/08/29 00:00:41;;;;;;;2.63;1.90;;;16.30;99.90;;;;;;5012184;28;20238;-60
2023/08/29 00:03:08;;;;;;;2.17;1.88;;;16.30;99.90;;;;;;5013395;28;20593;-61
2023/08/29 00:05:34;;;;;;;3.63;1.85;;;16.30;99.90;;;;;;5013345;28;20213;-61
2023/08/29 00:08:01;;;;;;;2.85;1.75;;;16.30;99.90;;;;;;5013795;28;20210;-61
2023/08/29 00:10:28;;;;;;;2.28;2.13;;;16.30;99.90;;;;;;5013375;28;20226;-61
2023/08/29 00:12:56;;;;;;;2.63;2.08;;;16.30;99.90;;;;;;5013609;28;20214;-61
2023/08/29 00:15:23;;;;;;;2.60;2.08;;;16.30;99.90;;;;;;5013721;28;20211;-62
2023/08/29 00:17:49;;;;;;;3.75;2.10;;;16.40;99.90;;;;;;5013296;28;20652;-61
2023/08/29 00:20:16;;;;;;;2.40;2.20;;;16.40;99.90;;;;;;5013481;28;20242;-61
2023/08/29 00:22:43;;;;;;;2.35;2.15;;;16.40;99.90;;;;;;5013560;28;20211;-61
2023/08/29 00:25:10;;;;;;;2.45;1.83;;;16.40;99.90;;;;;;5014019;28;20737;-61
2023/08/29 00:27:36;;;;;;;2.28;2.08;;;16.50;99.90;;;;;;5013496;28;20214;-61
2023/08/29 00:30:05;;;;;;;3.03;2.22;;;16.40;99.90;;;;;;5013145;28;20261;-62
2023/08/29 00:32:33;;;;;;;2.35;2.15;;;16.40;99.90;;;;;;5011402;28;20202;-61
2023/08/29 00:34:59;;;;;;;2.53;2.13;;;16.40;99.90;;;;;;5014941;28;20217;-61
2023/08/29 00:37:26;;;;;;;2.30;2.03;;;16.40;99.90;;;;;;5014778;28;20233;-61
2023/08/29 00:39:53;;;;;;;2.15;1.95;;;16.30;99.90;;;;;;5014874;28;20214;-60
2023/08/29 00:42:19;;;;;;;2.40;1.83;;;16.20;99.90;;;;;;5014858;28;20230;-61
2023/08/29 00:44:46;;;;;;;3.50;1.95;;;16.30;99.90;;;;;;5014701;28;20215;-61
2023/08/29 00:47:14;;;;;;;3.40;1.90;;;16.30;99.90;;;;;;5014856;28;20207;-61
2023/08/29 00:49:41;;;;;;;1.70;1.60;;;16.40;99.90;;;;;;5014813;28;20207;-61
2023/08/29 00:52:07;;;;;;;3.15;1.77;;;16.30;99.90;;;;;;5014537;28;20297;-61
2023/08/29 00:54:34;;;;;;;2.88;2.00;;;16.30;99.90;;;;;;5014699;28;20686;-61
2023/08/29 00:57:02;;;;;;;2.08;1.90;;;16.30;99.90;;;;;;5014513;28;20227;-61
2023/08/29 00:59:29;;;;;;;3.58;2.10;;;16.20;99.90;;;;;;5015214;28;20214;-62
2023/08/29 01:01:56;;;;;;;3.38;2.00;;;16.20;99.90;;;;;;5014582;28;20237;-61
2023/08/29 01:04:24;;;;;;;2.42;1.70;;;16.20;99.90;;;;;;5014855;28;20306;-60
2023/08/29 01:06:51;;;;;;;1.58;1.48;;;16.10;99.90;;;;;;5014235;28;20312;-61
2023/08/29 01:09:17;;;;;;;2.33;1.90;;;16.10;99.90;;;;;;5014447;28;20211;-61
2023/08/29 01:11:51;;;;;;;3.03;1.90;;;16.10;99.90;;;;;;5014188;28;20246;-61
2023/08/29 01:14:27;;;;;;;2.15;1.85;;;16.10;99.90;;;;;;5014613;28;20313;-61
2023/08/29 01:17:03;;;;;;;2.25;1.70;;;16.20;99.90;;;;;;5013989;28;20690;-60
2023/08/29 01:19:33;;;;;;;6.15;2.00;;;16.20;99.90;;;;;;5014588;28;20226;-61
2023/08/29 01:22:14;;;;;;;3.15;1.92;;;16.20;99.90;;;;;;5014109;28;20231;-62
2023/08/29 01:24:46;;;;;;;2.20;1.88;;;16.20;99.90;;;;;;5014312;28;20230;-62
2023/08/29 01:27:16;;;;;;;4.45;1.90;;;16.20;99.90;;;;;;5014136;28;20230;-62
2023/08/29 01:29:46;;;;;;;1.80;1.70;;;16.30;99.90;;;;;;5014142;28;20210;-62
2023/08/29 01:32:13;;;;;;;2.15;1.95;;;16.30;99.90;;;;;;5013801;28;20650;-61
2023/08/29 01:34:42;;;;;;;1.67;1.58;;;16.30;99.90;;;;;;5014047;28;20221;-61
2023/08/29 01:37:09;;;;;;;3.55;1.90;;;16.30;99.90;;;;;;5013933;28;20239;-62
2023/08/29 01:39:35;;;;;;;2.53;1.67;;;16.20;99.90;;;;;;5013913;28;20678;-61
2023/08/29 01:42:02;;;;;;;2.58;1.83;;;16.20;99.90;;;;;;5013978;28;20238;-61
2023/08/29 01:44:30;;;;;;;2.75;1.70;;;16.20;99.90;;;;;;5012802;28;20203;-62
2023/08/29 01:46:57;;;;;;;5.10;2.07;;;16.30;99.90;;;;;;5013270;28;20294;-61
2023/08/29 01:49:24;;;;;;;4.53;1.83;;;16.30;99.90;;;;;;5013757;28;20211;-61
2023/08/29 01:51:51;;;;;;;2.27;1.87;;;16.30;99.90;;;;;;5014190;28;20583;-62
2023/08/29 01:54:17;;;;;;;2.42;1.73;;;16.30;99.90;;;;;;5013823;28;20297;-61
2023/08/29 01:56:46;;;;;;;2.45;2.22;;;16.20;99.90;;;;;;5013505;28;20210;-62
2023/08/29 01:59:13;;;;;;;4.85;2.03;;;16.20;99.90;;;;;;5013784;28;20206;-62
2023/08/29 02:01:42;;;;;;;2.10;1.90;;;16.10;99.90;;;;;;5013604;28;20229;-62
2023/08/29 02:04:09;;;;;;;2.58;1.70;;;16.10;99.90;;;;;;5013654;28;20576;-62
2023/08/29 02:06:35;;;;;;;2.30;2.08;;;16.10;99.90;;;;;;5013423;28;20643;-62
2023/08/29 02:09:02;;;;;;;2.75;2.05;;;16.10;99.90;;;;;;5013810;28;20214;-61
2023/08/29 02:11:29;;;;;;;3.38;2.10;;;16.10;99.90;;;;;;5013678;28;20230;-62
2023/08/29 02:13:56;;;;;;;2.60;1.73;;;16.10;99.90;;;;;;5013635;28;20630;-62
2023/08/29 02:16:24;;;;;;;2.90;1.73;;;16.10;99.90;;;;;;5013005;28;20318;-62
2023/08/29 02:18:52;;;;;;;3.13;2.15;;;16.20;99.90;;;;;;5013421;28;20263;-61
2023/08/29 02:21:19;;;;;;;2.65;1.85;;;16.20;99.90;;;;;;5013319;28;20289;-61
2023/08/29 02:23:46;;;;;;;2.20;1.90;;;16.20;99.90;;;;;;5013460;28;20211;-61
2023/08/29 02:26:12;;;;;;;4.00;1.98;;;16.30;99.90;;;;;;5013307;28;20277;-62
2023/08/29 02:28:39;;;;;;;2.20;1.95;;;16.20;99.90;;;;;;5013092;28;20570;-62
2023/08/29 02:31:07;;;;;;;2.33;1.90;;;16.20;99.90;;;;;;5013052;28;20219;-61
2023/08/29 02:33:35;;;;;;;4.82;2.00;;;16.20;99.90;;;;;;5013249;28;20207;-62
2023/08/29 02:36:04;;;;;;;3.03;2.00;;;16.30;99.90;;;;;;5012899;28;20214;-63
2023/08/29 02:38:31;;;;;;;2.20;2.00;;;16.30;99.90;;;;;;5013135;28;20675;-63
2023/08/29 02:40:58;;;;;;;3.43;2.30;;;16.30;99.90;;;;;;5012855;28;20231;-63
2023/08/29 02:43:23;;;;;;;3.17;2.53;;;16.30;99.90;;;;;;5012950;28;20211;-63
2023/08/29 02:45:51;;;;;;;2.50;1.80;;;16.30;99.90;;;;;;5012889;28;20207;-63
2023/08/29 02:48:18;;;;;;;4.68;2.15;;;16.30;99.90;;;;;;5012961;28;20214;-63
2023/08/29 02:50:48;;;;;;;5.45;2.58;;;16.40;99.90;;;;;;5012551;28;20660;-62
2023/08/29 02:53:16;;;;;;;4.55;2.17;;;16.30;99.90;;;;;;5012895;28;20597;-62
2023/08/29 02:55:43;;;;;;;2.30;2.10;;;16.30;99.90;;;;;;5012149;28;20253;-62
2023/08/29 02:58:10;;;;;;;2.50;1.98;;;16.30;99.90;;;;;;5012573;28;20214;-62
2023/08/29 03:00:36;;;;;;;3.70;2.40;;;16.30;99.90;;;;;;5012710;28;20583;-63
2023/08/29 03:03:04;;;;;;;3.08;2.28;;;16.30;99.90;;;;;;5012721;28;20207;-61
2023/08/29 03:05:31;;;;;;;3.00;2.70;;;16.30;99.90;;;;;;5012527;28;20207;-62
2023/08/29 03:07:58;;;;;;;3.53;2.72;;;16.30;99.90;;;;;;5012390;28;20215;-62
2023/08/29 03:10:26;;;;;;;3.42;2.47;;;16.30;99.90;;;;;;5012498;28;20231;-62
2023/08/29 03:12:53;;;;;;;3.47;2.47;;;16.20;99.90;;;;;;5012634;28;20211;-62
2023/08/29 03:15:19;;;;;;;3.25;2.42;;;16.20;99.90;;;;;;5012419;28;20435;-62
2023/08/29 03:17:47;;;;;;;4.57;2.55;;;16.20;99.90;;;;;;5012072;28;20584;-62
2023/08/29 03:20:14;;;;;;;3.55;2.80;;;16.20;99.90;;;;;;5012665;28;20682;-63
2023/08/29 03:22:41;;;;;;;4.15;3.35;;;16.20;99.90;;;;;;5012051;28;20235;-63
2023/08/29 03:25:09;;;;;;;3.13;2.47;;;16.20;99.90;;;;;;5011983;28;20214;-63
2023/08/29 03:27:37;;;;;;;2.40;2.20;;;16.20;99.90;;;;;;5012309;28;20206;-64
2023/08/29 03:30:05;;;;;;;4.13;3.67;;;16.20;99.90;;;;;;5012776;28;20234;-65
2023/08/29 03:32:31;;;;;;;4.95;2.70;;;16.20;99.90;;;;;;5012299;28;20206;-63
2023/08/29 03:34:58;;;;;;;5.97;4.82;;;16.20;99.90;;;;;;5012140;28;20610;-63
2023/08/29 03:37:25;;;;;;;4.18;2.65;;;16.20;99.90;;;;;;5011794;28;20571;-62
2023/08/29 03:39:51;;;;;;;5.15;3.58;;;16.20;99.90;;;;;;5011918;28;20648;-63
2023/08/29 03:42:18;;;;;;;3.00;2.70;;;16.20;99.90;;;;;;5011846;28;20257;-61
2023/08/29 03:44:46;;;;;;;4.22;2.90;;;16.20;99.90;;;;;;5012012;28;20245;-63
2023/08/29 03:47:13;;;;;;;7.30;5.85;;;16.20;99.90;;;;;;5011726;28;20206;-63
2023/08/29 03:49:40;;;;;;;3.22;2.75;;;16.20;99.90;;;;;;5011746;28;20211;-62
2023/08/29 03:52:06;;;;;;;2.90;2.55;;;16.20;99.90;;;;;;5011424;28;20719;-61
2023/08/29 03:54:33;;;;;;;3.63;2.70;;;16.10;99.90;;;;;;5011632;28;20674;-62
2023/08/29 03:57:00;;;;;;;6.30;2.72;;;16.10;99.90;;;;;;5011347;28;20265;-62
2023/08/29 03:59:26;;;;;;;4.28;2.83;;;16.20;99.90;;;;;;5011727;28;20294;-62
2023/08/29 04:01:54;;;;;;;3.83;2.80;;;16.10;99.90;;;;;;5011446;28;20269;-62
2023/08/29 04:04:22;;;;;;;3.88;2.50;;;16.20;99.90;;;;;;5011534;28;20364;-62
2023/08/29 04:06:49;;;;;;;10.15;6.72;;;16.10;99.90;;;;;;5011818;28;20618;-62
2023/08/29 04:09:15;;;;;;;4.03;3.00;;;16.10;99.90;;;;;;5011380;28;20203;-63
2023/08/29 04:11:42;;;;;;;4.65;2.97;;;16.20;99.90;;;;;;5012190;28;20223;-62
2023/08/29 04:14:09;;;;;;;3.80;2.40;;;16.20;99.90;;;;;;5011975;28;20388;-62
2023/08/29 04:16:35;;;;;;;3.38;3.08;;;16.20;99.90;;;;;;5011579;28;20217;-62
2023/08/29 04:19:04;;;;;;;10.25;7.75;;;16.20;99.90;;;;;;5011857;28;20207;-62
2023/08/29 04:21:30;;;;;;;9.75;6.93;;;16.20;99.90;;;;;;5012086;28;20257;-62
2023/08/29 04:23:58;;;;;;;5.35;3.80;;;16.20;99.90;;;;;;5011836;28;20214;-63
2023/08/29 04:26:24;;;;;;;5.13;3.40;;;16.10;99.90;;;;;;5011596;28;20301;-63
2023/08/29 04:28:51;;;;;;;3.22;2.92;;;16.10;99.90;;;;;;5011357;28;20625;-63
2023/08/29 04:31:19;;;;;;;3.90;2.60;;;16.10;99.90;;;;;;5011853;28;20227;-63
2023/08/29 04:33:46;;;;;;;5.88;4.72;;;16.10;99.90;;;;;;5011527;28;20211;-63
2023/08/29 04:36:16;;;;;;;8.55;7.10;;;16.20;99.90;;;;;;5011181;28;20206;-64
2023/08/29 04:38:44;;;;;;;3.00;2.70;;;16.20;99.90;;;;;;5011568;28;20741;-63
2023/08/29 04:41:11;;;;;;;7.20;2.70;;;16.20;99.90;;;;;;5011603;28;20223;-62
2023/08/29 04:43:39;;;;;;;3.72;2.60;;;16.20;99.90;;;;;;5011600;28;20210;-62
2023/08/29 04:46:07;;;;;;;3.43;3.13;;;16.20;99.90;;;;;;5011651;28;20279;-62
2023/08/29 04:48:34;;;;;;;6.43;3.22;;;16.20;99.90;;;;;;5011152;28;20236;-61
2023/08/29 04:51:01;;;;;;;3.30;3.00;;;16.20;99.90;;;;;;5011600;28;20238;-62
2023/08/29 04:53:29;;;;;;;3.20;2.90;;;16.20;99.90;;;;;;5011459;28;20234;-63
2023/08/29 04:56:00;;;;;;;3.85;3.50;;;16.30;99.90;;;;;;5011137;28;20219;-63
2023/08/29 04:58:27;;;;;;;3.10;2.80;;;16.30;99.90;;;;;;5011610;28;20211;-63
2023/08/29 05:00:54;;;;;;;3.08;2.70;;;16.30;99.90;;;;;;5011629;28;20567;-63
2023/08/29 05:03:21;;;;;;;3.63;2.95;;;16.20;99.90;;;;;;5011088;28;20263;-62
2023/08/29 05:05:48;;;;;;;3.60;2.60;;;16.30;99.90;;;;;;5011242;28;20210;-62
2023/08/29 05:08:15;;;;;;;3.00;2.70;;;16.30;99.90;;;;;;5011215;28;20210;-62
2023/08/29 05:10:43;;;;;;;3.00;2.70;;;16.30;99.90;;;;;;5011192;28;20235;-64
2023/08/29 05:13:10;;;;;;;7.50;6.78;;;16.30;99.90;;;;;;5011037;28;20647;-63
2023/08/29 05:15:37;;;;;;;3.67;3.15;;;16.40;99.90;;;;;;5010590;28;20641;-63
2023/08/29 05:18:04;;;;;;;3.43;3.13;;;16.50;99.90;;;;;;5010902;28;20218;-63
2023/08/29 05:20:31;;;;;;;4.53;2.83;;;16.60;99.90;;;;;;5013923;28;20290;-62
2023/08/29 05:22:57;;;;;;;3.70;3.40;;;16.70;99.90;;;;;;5014617;28;20234;-63
2023/08/29 05:25:24;;;;;;;4.05;3.08;;;16.70;99.90;;;;;;5014679;28;20675;-63
2023/08/29 05:27:52;;;;;;;4.22;3.20;;;16.60;99.90;;;;;;5014480;28;20271;-61
2023/08/29 05:30:19;;;;;;;4.45;2.70;;;16.60;99.90;;;;;;5014334;28;20265;-61
2023/08/29 05:32:46;;;;;;;5.00;3.10;;;16.70;99.90;;;;;;5014386;28;20214;-64
2023/08/29 05:35:12;;;;;;;5.10;3.35;;;16.70;99.90;;;;;;5014743;28;20207;-63
2023/08/29 05:37:39;;;;;;;3.97;3.50;;;16.80;99.90;;;;;;5013993;28;20207;-62
2023/08/29 05:40:08;;;;;;;3.88;3.08;;;16.80;99.90;;;;;;5014313;28;20560;-62
2023/08/29 05:42:35;;;;;;;5.32;3.28;;;16.80;99.90;;;;;;5014217;28;20314;-65
2023/08/29 05:45:03;;;;;;;3.85;3.05;;;16.80;99.90;;;;;;5014414;28;20215;-61
2023/08/29 05:47:29;;;;;;;5.85;3.33;;;16.80;99.90;;;;;;5013667;28;20294;-63
2023/08/29 05:49:57;;;;;;;3.45;2.92;;;16.70;99.90;;;;;;5013817;28;20215;-62
2023/08/29 05:52:24;;;;;;;5.68;3.40;;;16.70;99.90;;;;;;5013894;28;20214;-63
2023/08/29 05:54:51;;;;;;;4.00;3.38;;;16.60;99.90;;;;;;5013806;28;20206;-63
2023/08/29 05:57:17;;;;;;;4.85;3.40;;;16.70;99.90;;;;;;5013436;28;20211;-63
2023/08/29 05:59:44;;;;;;;3.95;3.55;;;16.70;99.90;;;;;;5013751;28;20207;-63
2023/08/29 06:02:12;;;;;;;4.57;3.20;;;16.80;99.90;;;;;;5013507;28;20231;-63
2023/08/29 06:04:39;;;;;;;5.50;3.47;;;16.80;99.90;;;;;;5013634;28;20582;-63
2023/08/29 06:07:06;;;;;;;4.03;3.58;;;16.90;99.90;;;;;;5013146;28;20309;-63
2023/08/29 06:09:33;;;;;;;5.25;3.63;;;17.00;99.90;;;;;;5013282;28;20596;-63
2023/08/29 06:12:00;;;;;;;5.88;3.65;;;17.00;99.90;;;;;;5013412;28;20262;-63
2023/08/29 06:14:27;;;;;;;7.45;3.60;;;17.10;99.90;;;;;;5013440;28;20237;-63
2023/08/29 06:16:53;;;;;;;6.78;4.05;;;17.20;99.90;;;;;;5013115;28;20233;-63
2023/08/29 06:19:21;;;;;;;6.28;3.80;;;17.20;99.90;;;;;;5013187;28;20206;-64
2023/08/29 06:21:48;;;;;;;4.00;3.60;;;17.20;99.90;;;;;;5013027;28;20454;-63
2023/08/29 06:24:15;;;;;;;4.13;3.47;;;17.30;99.90;;;;;;5012854;28;20732;-63
2023/08/29 06:26:42;;;;;;;5.20;4.00;;;17.30;99.90;;;;;;5012941;28;20234;-63
2023/08/29 06:29:09;;;;;;;5.30;4.18;;;;;;;;;;5012979;28;20213;-62
2023/08/29 06:31:36;;;;;;;3.80;3.45;;;17.30;99.90;;;;;;5012178;28;20231;-63
2023/08/29 06:34:02;;;;;;;4.28;3.88;;;17.20;99.90;;;;;;5012903;28;20239;-63
2023/08/29 06:36:31;;;;;;;5.05;4.32;;;17.10;99.90;;;;;;5013159;28;20257;-62
2023/08/29 06:38:57;;;;;;;5.10;4.60;;;17.10;99.90;;;;;;5012677;28;20619;-63
2023/08/29 06:41:24;;;;;;;6.85;4.60;;;17.20;99.90;;;;;;5012587;28;20707;-63
2023/08/29 06:43:51;;;;;;;7.18;6.10;;;17.20;99.90;;;;;;5012703;28;20227;-63
2023/08/29 06:46:17;;;;;;;9.27;7.63;;;17.30;99.90;;;;;;5012400;28;20207;-63
2023/08/29 06:48:45;;;;;;;8.50;5.47;;;17.30;99.90;;;;;;5012650;28;20218;-62
2023/08/29 06:51:12;;;;;;;10.07;6.93;;;17.40;99.90;;;;;;5012283;28;20654;-63
2023/08/29 06:53:40;;;;;;;5.78;5.18;;;17.40;99.90;;;;;;5012504;28;20306;-63
2023/08/29 06:56:07;;;;;;;7.20;5.15;;;17.40;99.90;;;;;;5012247;28;20213;-62
2023/08/29 06:58:33;;;;;;;6.25;5.22;;;17.30;99.90;;;;;;5012385;28;20238;-61
2023/08/29 07:01:00;;;;;;;5.90;5.40;;;17.40;99.90;;;;;;5012127;28;20235;-62
2023/08/29 07:03:27;;;;;;;15.93;5.40;;;17.40;99.90;;;;;;5012319;28;20326;-63
2023/08/29 07:05:54;;;;;;;6.35;5.75;;;17.40;99.90;;;;;;5011972;28;20257;-64
2023/08/29 07:08:21;;;;;;;29.95;26.77;;;17.50;99.90;;;;;;5012598;28;20203;-67
2023/08/29 07:10:50;;;;;;;10.77;9.77;;;17.50;99.90;;;;;;5012382;28;20560;-64
2023/08/29 07:13:16;;;;;;;7.03;6.30;;;17.70;99.90;;;;;;5011953;28;20211;-60
2023/08/29 07:15:43;;;;;;;6.57;6.00;;;17.70;99.90;;;;;;5012033;28;20215;-60
2023/08/29 07:18:10;;;;;;;6.00;5.50;;;17.80;99.90;;;;;;5012048;28;20203;-58
2023/08/29 07:20:37;;;;;;;7.03;6.32;;;17.80;99.90;;;;;;5011873;28;20226;-59
2023/08/29 07:23:04;;;;;;;7.63;5.85;;;17.70;99.90;;;;;;5012463;28;20254;-60
2023/08/29 07:25:44;;;;;;;6.50;5.72;;;17.60;99.90;;;;;;5012229;28;20706;-63
2023/08/29 07:28:14;;;;;;;6.50;5.88;;;17.50;99.90;;;;;;5012659;28;20202;-61
2023/08/29 07:30:45;;;;;;;6.80;6.10;;;17.60;99.90;;;;;;5012646;28;20717;-59
2023/08/29 07:33:12;;;;;;;6.28;5.68;;;17.60;99.90;;;;;;5012640;28;20294;-61
2023/08/29 07:35:39;;;;;;;6.47;5.80;;;17.70;99.90;;;;;;5012371;28;20238;-58
2023/08/29 07:38:06;;;;;;;8.15;6.28;;;17.80;99.90;;;;;;5012463;28;20215;-60
2023/08/29 07:40:33;;;;;;;8.10;6.18;;;18.00;99.90;;;;;;5012397;28;20234;-60
2023/08/29 07:43:01;;;;;;;6.50;5.90;;;18.10;99.90;;;;;;5012465;28;20230;-61
2023/08/29 07:45:29;;;;;;;6.50;5.85;;;18.10;99.90;;;;;;5012408;28;20203;-61
2023/08/29 07:47:56;;;;;;;26.63;23.50;;;18.20;99.90;;;;;;5012270;28;20218;-61
2023/08/29 07:50:23;;;;;;;8.23;5.63;;;18.20;99.90;;;;;;5012230;28;20741;-59
2023/08/29 07:52:50;;;;;;;5.80;5.28;;;18.30;99.90;;;;;;5011594;28;20217;-59
2023/08/29 07:55:17;;;;;;;6.88;5.43;;;18.30;99.90;;;;;;5011336;28;20219;-60
2023/08/29 07:57:44;;;;;;;6.88;5.65;;;18.30;99.90;;;;;;5011241;28;20211;-59
2023/08/29 08:00:12;;;;;;;5.53;4.85;;;18.50;99.90;;;;;;5011269;28;20562;-61
2023/08/29 08:02:41;;;;;;;6.80;4.97;;;18.70;99.90;;;;;;5011318;28;20223;-61
2023/08/29 08:05:10;;;;;;;6.05;5.03;;;18.90;99.90;;;;;;5011711;28;20211;-60
2023/08/29 08:07:37;;;;;;;6.90;4.90;;;19.00;99.90;;;;;;5011204;28;20211;-60
2023/08/29 08:10:04;;;;;;;5.60;5.10;;;19.10;99.90;;;;;;5011492;28;20214;-59
2023/08/29 08:12:31;;;;;;;6.75;4.63;;;19.20;99.90;;;;;;5011508;28;20206;-58
2023/08/29 08:14:58;;;;;;;4.80;4.40;;;19.30;99.90;;;;;;5011645;28;20215;-59
2023/08/29 08:17:25;;;;;;;5.68;4.45;;;19.30;99.90;;;;;;5010942;28;20289;-61
2023/08/29 08:19:53;;;;;;;5.38;4.85;;;19.20;99.90;;;;;;5021820;28;20584;-64
2023/08/29 08:22:20;;;;;;;6.07;4.47;;;19.20;99.90;;;;;;5029788;28;20718;-63
2023/08/29 08:24:47;;;;;;;7.20;4.30;;;19.20;99.90;;;;;;5029586;28;20226;-64
2023/08/29 08:27:13;;;;;;;5.93;4.50;;;19.20;99.90;;;;;;5029650;28;20218;-62
2023/08/29 08:29:42;;;;;;;6.55;5.35;;;19.10;99.90;;;;;;5030349;28;20301;-61
2023/08/29 08:32:09;;;;;;;6.78;4.75;;;19.00;99.90;;;;;;5030855;28;20230;-60
2023/08/29 08:34:35;;;;;;;5.60;4.22;;;18.90;99.90;;;;;;5031621;28;20701;-60
2023/08/29 08:37:04;;;;;;;5.45;4.43;;;18.90;99.90;;;;;;5031133;28;20206;-61
2023/08/29 08:39:31;;;;;;;6.65;4.88;;;18.90;99.90;;;;;;5031459;28;20210;-60
2023/08/29 08:41:58;;;;;;;6.80;4.80;;;18.90;99.90;;;;;;5031834;28;20230;-61
2023/08/29 08:44:26;;;;;;;4.53;4.15;;;18.70;99.90;;;;;;5031858;28;20226;-62
2023/08/29 08:46:53;;;;;;;4.50;4.10;;;18.70;99.90;;;;;;5031718;28;20243;-64
2023/08/29 08:49:20;;;;;;;15.43;13.75;;;18.80;99.90;;;;;;5031730;28;20222;-61
2023/08/29 08:51:48;;;;;;;5.07;4.57;;;18.90;99.90;;;;;;5031477;28;20238;-65
2023/08/29 08:54:16;;;;;;;4.85;4.32;;;18.90;99.90;;;;;;5032940;28;20202;-64
2023/08/29 08:56:43;;;;;;;9.00;4.47;;;18.90;99.90;;;;;;5035660;28;20261;-63
2023/08/29 08:59:10;;;;;;;5.53;4.53;;;18.80;99.90;;;;;;5037699;28;20220;-65
2023/08/29 09:01:38;;;;;;;5.85;4.65;;;18.90;99.90;;;;;;5037915;28;20380;-67
2023/08/29 09:04:05;;;;;;;6.28;5.40;;;18.90;99.90;;;;;;5038587;28;20230;-63
2023/08/29 09:06:32;;;;;;;6.68;4.65;;;19.10;99.90;;;;;;5034621;28;20226;-67
2023/08/29 09:09:17;;;;;;;5.00;4.22;;;19.20;99.90;;;;;;5033903;28;20291;-63
2023/08/29 09:11:44;;;;;;;5.00;4.53;;;19.20;99.90;;;;;;5034152;28;20269;-64
2023/08/29 09:14:11;;;;;;;4.75;4.28;;;19.30;99.90;;;;;;5033395;28;20596;-65
2023/08/29 09:16:37;;;;;;;4.80;4.40;;;19.30;99.90;;;;;;5033117;28;20218;-64
2023/08/29 09:19:06;;;;;;;5.47;4.25;;;19.30;99.90;;;;;;5033613;28;20653;-63
2023/08/29 09:21:35;;;;;;;6.75;6.07;;;19.40;99.90;;;;;;5033376;28;20226;-66
2023/08/29 09:24:03;;;;;;;5.38;4.43;;;19.40;99.90;;;;;;5033754;28;20313;-65
2023/08/29 09:26:33;;;;;;;4.32;3.90;;;19.30;99.90;;;;;;5033106;28;20206;-62
2023/08/29 09:29:00;;;;;;;4.97;3.75;;;19.40;99.90;;;;;;5033675;28;20264;-64
2023/08/29 09:31:30;;;;;;;5.10;3.83;;;19.40;99.90;;;;;;5033016;28;20233;-62
2023/08/29 09:33:57;;;;;;;4.10;3.55;;;19.30;99.90;;;;;;5033249;28;20293;-62
2023/08/29 09:36:23;;;;;;;8.98;3.60;;;19.10;99.90;;;;;;5032617;28;20573;-64
2023/08/29 09:38:50;;;;;;;6.35;3.90;;;19.10;99.90;;;;;;5032846;28;20213;-64
2023/08/29 09:41:18;;;;;;;4.25;3.83;;;19.10;99.90;;;;;;5032564;28;20234;-64
2023/08/29 09:43:49;;;;;;;7.13;3.90;;;19.30;99.90;;;;;;5032892;28;20702;-65
2023/08/29 09:46:21;;;;;;;5.55;3.92;;;19.40;99.90;;;;;;5032314;28;20241;-64
2023/08/29 09:48:55;;;;;;;3.80;3.45;;;19.70;99.90;;;;;;5033135;28;20210;-63
2023/08/29 09:51:24;;;;;;;10.00;6.25;;;20.10;99.90;;;;;;5032029;28;20523;-64
2023/08/29 09:53:51;;;;;;;4.88;3.95;;;20.20;99.90;;;;;;5032730;28;20206;-63
2023/08/29 09:56:24;;;;;;;4.40;4.00;;;20.00;99.90;;;;;;5032793;28;20213;-60
2023/08/29 09:58:55;;;;;;;6.22;3.40;;;20.00;99.90;;;;;;5033168;28;20210;-60
2023/08/29 10:01:25;;;;;;;4.00;3.70;;;20.10;99.90;;;;;;5033245;28;20263;-60
2023/08/29 10:03:51;;;;;;;3.50;3.20;;;20.20;99.90;;;;;;5033055;28;20706;-59
2023/08/29 10:06:19;;;;;;;4.72;3.72;;;20.10;99.90;;;;;;5031222;28;20210;-59
2023/08/29 10:08:52;;;;;;;4.63;4.10;;;20.00;99.90;;;;;;5033016;28;20614;-59
2023/08/29 10:11:20;;;;;;;3.95;3.55;;;19.90;99.90;;;;;;5032695;28;20227;-59
2023/08/29 10:13:49;;;;;;;4.00;3.33;;;19.70;99.90;;;;;;5033135;28;20226;-59
2023/08/29 10:16:17;;;;;;;3.90;3.50;;;19.50;99.90;;;;;;5032519;28;20671;-58
2023/08/29 10:18:46;;;;;;;4.28;3.67;;;19.30;99.90;;;;;;5033078;28;20618;-59
2023/08/29 10:21:14;;;;;;;3.83;3.40;;;19.20;99.90;;;;;;5032956;28;20292;-59
2023/08/29 10:23:42;;;;;;;5.22;3.72;;;18.90;99.90;;;;;;5033110;28;20232;-58
2023/08/29 10:26:08;;;;;;;4.00;3.60;;;18.80;99.90;;;;;;5032841;28;20228;-58
2023/08/29 10:28:36;;;;;;;22.48;20.20;;;18.80;99.90;;;;;;5032991;28;20582;-59
2023/08/29 10:31:05;;;;;;;3.75;3.45;;;18.90;99.90;;;;;;5032726;28;20229;-59
2023/08/29 10:33:36;;;;;;;4.30;3.50;;;18.80;99.90;;;;;;5032837;28;20198;-59
2023/08/29 10:36:04;;;;;;;3.95;3.55;;;18.60;99.90;;;;;;5032220;28;20210;-59
2023/08/29 10:38:31;;;;;;;3.65;3.20;;;18.60;99.90;;;;;;5032747;28;20237;-58
2023/08/29 10:41:06;;;;;;;4.10;3.45;;;18.60;99.90;;;;;;5032626;28;20222;-59
2023/08/29 10:43:34;;;;;;;5.60;3.38;;;18.80;99.90;;;;;;5032585;28;20276;-59
2023/08/29 10:46:14;;;;;;;4.10;3.80;;;19.00;99.90;;;;;;5032293;28;20210;-59
2023/08/29 10:48:55;;;;;;;4.38;3.97;;;19.20;99.90;;;;;;5032446;28;20309;-59
2023/08/29 10:51:24;;;;;;;5.50;3.63;;;19.20;99.90;;;;;;5032400;28;20344;-60
2023/08/29 10:53:52;;;;;;;5.57;3.97;;;19.20;99.90;;;;;;5032654;28;20202;-60
2023/08/29 10:56:23;;;;;;;6.47;3.40;;;19.30;99.90;;;;;;5032025;28;20211;-60
2023/08/29 10:58:50;;;;;;;5.05;3.40;;;19.30;99.90;;;;;;5032295;28;20210;-60
2023/08/29 11:01:30;;;;;;;3.45;3.15;;;19.10;99.90;;;;;;5032016;28;20238;-60
2023/08/29 11:03:59;;;;;;;4.30;3.40;;;18.90;99.90;;;;;;5032171;28;20237;-60
2023/08/29 11:06:27;;;;;;;5.82;3.60;;;18.80;99.90;;;;;;5032217;28;20206;-60
2023/08/29 11:09:20;;;;;;;4.43;3.40;;;18.80;99.90;;;;;;5032411;28;20214;-59
2023/08/29 11:12:06;;;;;;;4.25;3.70;;;19.10;99.90;;;;;;5032817;28;20233;-61
2023/08/29 11:14:51;;;;;;;5.18;4.70;;;19.30;99.90;;;;;;5032170;28;20237;-58
2023/08/29 11:17:22;;;;;;;3.45;3.15;;;19.70;99.90;;;;;;5031137;28;20292;-61
2023/08/29 11:19:52;;;;;;;4.38;3.53;;;20.20;99.90;;;;;;5031626;28;20210;-58
2023/08/29 11:22:22;;;;;;;3.30;3.00;;;20.60;99.90;;;;;;5031408;28;20301;-61
2023/08/29 11:24:54;;;;;;;4.65;3.08;;;20.40;99.90;;;;;;5031701;28;20241;-58
2023/08/29 11:27:21;;;;;;;3.97;2.95;;;20.50;99.90;;;;;;5031366;28;20689;-58
2023/08/29 11:29:48;;;;;;;4.38;3.03;;;20.70;99.90;;;;;;5031526;28;20245;-59
2023/08/29 11:32:16;;;;;;;3.20;2.90;;;21.30;99.90;;;;;;5031418;28;20233;-59
2023/08/29 11:34:43;;;;;;;5.75;3.08;;;21.80;99.90;;;;;;5031270;28;20293;-58
2023/08/29 11:37:11;;;;;;;3.08;2.78;;;22.10;99.90;;;;;;5031725;28;20206;-61
2023/08/29 11:39:37;;;;;;;3.20;2.88;;;22.40;99.90;;;;;;5031293;28;20214;-60
2023/08/29 11:42:05;;;;;;;3.20;2.70;;;22.70;99.90;;;;;;5031234;28;20236;-60
2023/08/29 11:44:33;;;;;;;3.25;2.95;;;22.80;99.90;;;;;;5031281;28;20248;-61
2023/08/29 11:47:00;;;;;;;4.28;3.10;;;23.20;99.90;;;;;;5031075;28;20202;-60
2023/08/29 11:49:27;;;;;;;3.17;2.90;;;23.40;99.90;;;;;;5031221;28;20206;-61
2023/08/29 11:51:54;;;;;;;3.42;2.95;;;23.30;99.90;;;;;;5030988;28;20257;-60
2023/08/29 11:54:41;;;;;;;3.53;3.22;;;23.30;99.90;;;;;;5031400;28;20213;-61
2023/08/29 11:57:10;;;;;;;3.65;2.95;;;23.00;99.90;;;;;;5031058;28;20210;-60
2023/08/29 11:59:40;;;;;;;2.90;2.65;;;22.60;99.90;;;;;;5031647;28;20666;-62
2023/08/29 12:02:08;;;;;;;3.03;2.78;;;22.40;99.90;;;;;;5031345;28;20368;-59
2023/08/29 12:04:39;;;;;;;3.67;3.38;;;22.40;99.90;;;;;;5031030;28;20234;-59
2023/08/29 12:07:08;;;;;;;4.25;3.53;;;22.50;99.90;;;;;;5030878;28;20210;-59
2023/08/29 12:09:35;;;;;;;2.83;2.40;;;22.70;99.90;;;;;;5031268;28;20209;-61
2023/08/29 12:12:04;;;;;;;2.65;2.45;;;22.90;99.90;;;;;;5031092;28;20364;-61
2023/08/29 12:14:31;;;;;;;3.13;2.30;;;23.10;99.90;;;;;;5030840;28;20202;-64
2023/08/29 12:16:58;;;;;;;2.78;2.58;;;23.20;99.90;;;;;;5030937;28;20222;-61
2023/08/29 12:19:25;;;;;;;2.63;2.42;;;23.30;99.90;;;;;;5031143;28;20301;-61
2023/08/29 12:21:55;;;;;;;3.35;2.80;;;23.30;99.90;;;;;;5030973;28;20223;-61
2023/08/29 12:24:22;;;;;;;4.47;2.47;;;23.30;99.90;;;;;;5030843;28;20218;-61
2023/08/29 12:26:49;;;;;;;2.80;2.60;;;23.40;99.90;;;;;;5030883;28;20674;-62
2023/08/29 12:29:17;;;;;;;4.05;3.42;;;23.30;99.90;;;;;;5031887;28;20670;-62
2023/08/29 12:31:43;;;;;;;3.05;2.50;;;23.30;99.90;;;;;;5035570;28;20233;-60
2023/08/29 12:34:10;;;;;;;3.25;2.38;;;23.20;99.90;;;;;;5035157;28;20206;-64
2023/08/29 12:36:37;;;;;;;2.47;2.28;;;23.20;99.90;;;;;;5034830;28;20210;-62
2023/08/29 12:39:04;;;;;;;2.65;2.10;;;23.00;99.90;;;;;;5035192;28;20695;-61
2023/08/29 12:41:31;;;;;;;5.28;2.92;;;23.00;99.90;;;;;;5034848;28;20226;-61
2023/08/29 12:43:59;;;;;;;2.95;2.65;;;23.00;99.90;;;;;;5035136;28;20217;-62
2023/08/29 12:46:27;;;;;;;2.65;2.45;;;23.10;99.90;;;;;;5034918;28;20245;-62
2023/08/29 12:48:54;;;;;;;3.03;2.47;;;23.20;99.90;;;;;;5034955;28;20210;-62